Aérodrome :
LOGIN :

S'inscrire | Disclaimer

   EN    FR    IT 

 










Légende :    VFR   VFR Marginal   IFR   IFR Intensif   IFR Très Intensif
Visi : 
Plafond : 
>= 8 km
>= 3000ft
5 à 8 km
1000 à 3000 ft
1500m à 5 km
500 à 1000 ft
800 à 1500m
200 à 500 ft
< 800m
< 200 ft
Symboles :   Orages  Brouillard  Fortes neiges  Fortes précipitations  Vent > 20 kt
SIGMETs :   Divers  Orages  Givrage  Turbulence  Onde Orograph.  Cendres Volcan.






- Altitude de l'aérodrome : 124 ft
- Code IATA : NHT


EGWU - RAF Northolt

DERNIER METAR :
  • 282020Z AUTO 34003KT 0450 FG BKN018/// BKN035/// 05/04 Q1012

METARs EXPIRÉS :
  • 282009Z 34002KT 5000 0150W PRFG BKN001 05/05 Q1012 NOSIG RMK RED RED
  • 281950Z 28003KT 0150 FG OVC001 06/05 Q1012 NOSIG
  • 281939Z 28003KT 0150 FG OVC001 05/04 Q1012 NOSIG RMK RED RED
  • 281928Z 28002KT 5000 0500NW PRFG FEW024 SCT082 06/05 Q1012 NOSIG RMK RED RED
  • 281850Z 27003KT 9999 MIFG SCT084 07/06 Q1011 BECMG 7000 RMK BLU BECMG WHT
  • 281820Z 04001KT 9000 BR SCT070 BKN100 08/06 Q1011 BECMG 7000 RMK BLU BECMG WHT
  • 281750Z 11001KT 9999 -RA FEW048 BKN065 08/07 Q1010 NOSIG RMK BLU BLU

TAF TAF EGWU
Valide du 28 à 21h jusqu'au 29 à 15h UTC


281957Z 2821/2915 29002KT 0150 FG VV///
TEMPO 2821/2909 4000 MIFG
PROB40
TEMPO 2821/2822 BKN006
PROB30 2822/2910 2000 BKN005
BECMG 2908/2910 7000 BR
BECMG 2910/2912 9999 NSW BKN008



MET'MAP, la Météo Aéronautique d'un coup d'oeil ! - Copyright ORBIFLY Décembre 2007 - Disclaimer

ORBIFLY MET'MAP TEAM :

Programmation & Développement : Alexandra Zaïnal
Sur une idée originale de : Baudouin d'Aumeries
Soutien technique & logistique : Manuel Goepfert
Assistance : Marc-Olivier Méhu




SOURCES & CREDITS :

   NOAA